Pagrindinis puslapis
METAR-TAF:

METAR-TAF

Oro uostai :

Breša-Ghedi, Italija

platuma: 45-25N, ilguma: 010-17E, Aukštis: 102 m

Dabartinis oras

Ataskaita buvo paskelbta 43 minutes, ne 18:55 UTC
Vėjas 2 kt iš Pietryčių
Temperatūra 18°C
Drėgmė 77%
Slėgis 1020 hPa
Matomumas 10 km arba daugiau
Išsisklaidę debesys ne aukštis 8000 ft

METAR: LIPL 191855Z 13002KT 9999 SCT080 18/14 Q1020 RMK SCT VIS MIN 9999 WIND THR31 08003KT WIND THR13 09001KT BLU

Laikas: 21:38 (19:38 UTC)

Prognozė

Ataskaita buvo paskelbta 2 valandos ir 38 minutes, ne 17:00 UTC
Prognozė galioja nuo 19 metu 18 UTC su 20 metu 03 UTC
Vėjas 6 kt iš Rytų/Pietryčių
Matomumas 10 km arba daugiau
Išsisklaidę debesys ne aukštis 6500 ft

TAF: LIPL 191700Z 1918/2003 11006KT 9999 SCT065

Orai ataskaitas ir orų prognozės (METAR, TAF).

turimą stotys yra geltonos ir raudonos taškus žemėlapyje.

Perkelti pele per norėdami pamatyti stoties vardą.

Tada spustelėkite, norėdami matyti oro stebėjimo ir prognozės.

Norėdami pakeisti žemėlapį: spustelėkite ant žalios mygtukų su juodo kryžiaus žemyn,; žalią mygtuką su brūkšneliu, jei norite nutolinti; arba žalių rodyklių gretimoms žemėlapius.


METAR-TAF: